Terminal Aerodrome Forecast
Issued by NWS

Home | Current Version | Previous Version | Text Only | Print | Product List | Glossary On
Versions: 1 2 3 4 5 6 7 8 9 10 11 12 13 14 15 16 17 18 19 20 21 22 23 24 25 26 27 28 29 30
000
FTUS41 KBOX 260520
TAFACK
TAF
KACK 260520Z 2606/2706 08015KT P6SM -RA OVC030
     FM261200 09019KT P6SM -RADZ OVC015
     FM261700 10016KT 5SM -DZ BR VCSH OVC008
     FM270000 12011KT 3SM -DZ BR OVC008
     FM270200 18010KT 3SM -DZ BR OVC003=

USA.gov is the U.S. government's official web portal to all federal, state and local government web resources and services.